Time;durP1;ratioP1;P1;durP2;ratioP2;P2;SDS_P1;SDS_P2;PMS_P1;PMS_P2;Temp;Humidity;BMP_temperature;BMP_pressure;BME280_temperature;BME280_humidity;BME280_pressure;Samples;Min_cycle;Max_cycle;Signal;HPM_P1;HPM_P2
2023/06/28 00:01:07;;;;;;;12.18;7.08;;;28.40;99.90;;;;;;1836190;76;21581;-82
2023/06/28 00:03:41;;;;;;;9.18;6.12;;;28.40;99.90;;;;;;1877643;74;21114;-79
2023/06/28 00:06:14;;;;;;;9.05;5.40;;;28.40;99.90;;;;;;1929734;74;21131;-81
2023/06/28 00:08:47;;;;;;;9.28;5.30;;;28.40;99.90;;;;;;1900158;74;21137;-79
2023/06/28 00:11:20;;;;;;;11.85;6.42;;;28.40;99.90;;;;;;1913368;74;21065;-80
2023/06/28 00:13:56;;;;;;;11.10;6.83;;;28.40;99.90;;;;;;1901106;74;21138;-81
2023/06/28 00:16:30;;;;;;;14.30;7.25;;;28.40;99.90;;;;;;1909449;74;21041;-82
2023/06/28 00:19:03;;;;;;;10.10;6.45;;;28.40;99.90;;;;;;1910781;74;21130;-81
2023/06/28 00:21:43;;;;;;;10.43;5.58;;;28.40;99.90;;;;;;1911181;74;21072;-82
2023/06/28 00:24:17;;;;;;;11.57;6.33;;;28.50;99.90;;;;;;1825303;76;21191;-80
2023/06/28 00:26:51;;;;;;;15.23;6.50;;;28.50;99.90;;;;;;1887871;75;21531;-80
2023/06/28 00:29:24;;;;;;;16.20;6.17;;;28.50;99.90;;;;;;1882760;75;21177;-80
2023/06/28 00:31:57;;;;;;;9.40;5.35;;;28.60;99.90;;;;;;1872280;75;21129;-81
2023/06/28 00:34:30;;;;;;;8.95;5.22;;;28.60;99.90;;;;;;1875192;75;21139;-81
2023/06/28 00:37:04;;;;;;;11.28;5.80;;;28.70;99.90;;;;;;1869739;75;21111;-82
2023/06/28 00:39:36;;;;;;;10.72;5.53;;;28.70;99.90;;;;;;1855865;76;21100;-82
2023/06/28 00:42:09;;;;;;;8.83;5.70;;;28.80;99.90;;;;;;1876903;75;21181;-82
2023/06/28 00:44:43;;;;;;;12.93;5.78;;;28.80;99.90;;;;;;1835372;76;21241;-82
2023/06/28 00:47:20;;;;;;;10.80;6.05;;;28.80;99.90;;;;;;1885329;75;21092;-80
2023/06/28 00:49:56;;;;;;;10.32;6.03;;;28.90;99.90;;;;;;1891950;74;21153;-80
2023/06/28 00:52:30;;;;;;;9.38;5.97;;;29.00;99.90;;;;;;1889632;74;21114;-80
2023/06/28 00:55:03;;;;;;;10.28;5.72;;;29.00;99.90;;;;;;1894573;75;21474;-80
2023/06/28 00:57:39;;;;;;;10.68;5.05;;;29.10;99.90;;;;;;1899285;74;21059;-78
2023/06/28 01:00:13;;;;;;;10.38;5.33;;;29.10;99.90;;;;;;1886288;75;21071;-79
2023/06/28 01:02:46;;;;;;;15.50;5.20;;;29.20;99.90;;;;;;1884278;75;21100;-81
2023/06/28 01:05:22;;;;;;;16.00;5.70;;;29.30;99.90;;;;;;1900453;73;21190;-80
2023/06/28 01:07:58;;;;;;;11.00;4.70;;;29.40;99.90;;;;;;1900479;74;21111;-80
2023/06/28 01:10:37;;;;;;;12.60;5.37;;;29.50;99.90;;;;;;1868043;76;21153;-78
2023/06/28 01:13:13;;;;;;;11.15;5.78;;;29.60;99.90;;;;;;1916049;74;21091;-79
2023/06/28 01:15:46;;;;;;;10.28;4.47;;;29.70;99.90;;;;;;1895146;74;21077;-71
2023/06/28 01:18:21;;;;;;;9.25;4.87;;;29.80;99.90;;;;;;1902486;73;21603;-73
2023/06/28 01:20:54;;;;;;;7.72;4.20;;;29.80;99.90;;;;;;1906661;73;21164;-70
2023/06/28 01:23:26;;;;;;;9.28;4.40;;;29.90;99.90;;;;;;1909443;74;21146;-71
2023/06/28 01:26:02;;;;;;;7.65;4.03;;;30.00;99.90;;;;;;1888877;75;21229;-70
2023/06/28 01:28:33;;;;;;;;;;;30.20;99.90;;;;;;1908293;74;21952;-69
2023/06/28 01:31:07;;;;;;;9.83;4.28;;;30.30;99.90;;;;;;1891269;74;20194;-69
2023/06/28 01:33:42;;;;;;;7.30;4.25;;;30.40;99.90;;;;;;1864895;76;21134;-70
2023/06/28 01:36:16;;;;;;;7.47;4.22;;;30.40;99.90;;;;;;1893034;74;21427;-70
2023/06/28 01:38:52;;;;;;;8.83;4.10;;;30.50;99.90;;;;;;1883184;74;21126;-72
2023/06/28 01:41:26;;;;;;;7.35;4.22;;;30.60;99.90;;;;;;1881859;74;21518;-73
2023/06/28 01:43:59;;;;;;;7.67;4.17;;;30.60;99.90;;;;;;1887011;74;21204;-71
2023/06/28 01:46:33;;;;;;;16.60;4.78;;;30.70;99.90;;;;;;1887162;74;21541;-71
2023/06/28 01:49:06;;;;;;;9.40;3.95;;;30.60;99.90;;;;;;1858283;75;21147;-71
2023/06/28 01:51:40;;;;;;;7.58;4.22;;;30.60;99.90;;;;;;1845822;76;21059;-71
2023/06/28 01:54:12;;;;;;;45.17;8.88;;;30.70;99.90;;;;;;1880656;74;21104;-70
2023/06/28 01:56:45;;;;;;;44.42;10.10;;;30.80;99.90;;;;;;1891544;74;21075;-70
2023/06/28 01:59:18;;;;;;;77.27;9.63;;;30.80;99.90;;;;;;1875450;75;21589;-70
2023/06/28 02:01:51;;;;;;;19.32;5.45;;;30.80;99.90;;;;;;1876306;74;21158;-70
2023/06/28 02:04:24;;;;;;;15.03;4.70;;;30.80;99.90;;;;;;1884917;74;21569;-71
2023/06/28 02:06:56;;;;;;;8.80;4.40;;;30.80;99.90;;;;;;1885602;74;21083;-71
2023/06/28 02:09:29;;;;;;;8.08;4.42;;;30.90;99.90;;;;;;1894130;74;21493;-69
2023/06/28 02:12:01;;;;;;;8.73;5.40;;;31.00;99.90;;;;;;1906800;74;21111;-70
2023/06/28 02:14:33;;;;;;;10.90;4.72;;;31.10;99.90;;;;;;1903378;73;21091;-70
2023/06/28 02:17:05;;;;;;;10.70;6.55;;;31.10;99.90;;;;;;1894293;73;21116;-70
2023/06/28 02:19:39;;;;;;;10.48;4.75;;;31.20;99.90;;;;;;1899595;73;21115;-69
2023/06/28 02:22:11;;;;;;;28.40;13.95;;;31.30;99.90;;;;;;1897274;74;21583;-69
2023/06/28 02:24:44;;;;;;;7.42;4.65;;;31.30;99.90;;;;;;1901656;74;21715;-70
2023/06/28 02:27:19;;;;;;;8.33;4.03;;;31.30;99.90;;;;;;1887263;74;21074;-70
2023/06/28 02:29:52;;;;;;;;;;;31.30;99.90;;;;;;1882499;75;21188;-69
2023/06/28 02:32:30;;;;;;;6.72;3.62;;;31.30;99.90;;;;;;1879640;74;20197;-70
2023/06/28 02:35:05;;;;;;;7.78;3.42;;;31.20;99.90;;;;;;1838817;76;21151;-70
2023/06/28 02:37:37;;;;;;;8.73;4.05;;;31.20;99.90;;;;;;1910284;73;21155;-70
2023/06/28 02:40:14;;;;;;;7.30;4.17;;;31.30;99.90;;;;;;1870333;75;21667;-71
2023/06/28 02:42:47;;;;;;;8.35;4.33;;;31.40;99.90;;;;;;1870259;75;21141;-71
2023/06/28 02:45:19;;;;;;;9.88;3.83;;;31.50;99.90;;;;;;1871062;76;21220;-70
2023/06/28 02:47:52;;;;;;;7.90;4.10;;;31.60;99.90;;;;;;1896392;74;21062;-71
2023/06/28 02:50:24;;;;;;;5.25;3.87;;;31.70;99.90;;;;;;1866330;75;21111;-69
2023/06/28 02:52:57;;;;;;;6.78;3.67;;;31.90;99.90;;;;;;1853134;75;21127;-69
2023/06/28 02:55:32;;;;;;;;;;;32.00;99.70;;;;;;1895707;74;21105;-69
2023/06/28 02:58:07;;;;;;;8.60;4.03;;;32.10;99.90;;;;;;1894317;75;20278;-69
2023/06/28 03:00:40;;;;;;;18.42;5.97;;;32.20;99.00;;;;;;1879617;75;21184;-71
2023/06/28 03:03:13;;;;;;;16.15;4.62;;;32.30;99.30;;;;;;1869382;74;21163;-69
2023/06/28 03:05:46;;;;;;;11.05;4.75;;;32.20;99.50;;;;;;1875058;74;21168;-69
2023/06/28 03:08:17;;;;;;;8.03;4.45;;;32.20;99.90;;;;;;1851400;76;21565;-67
2023/06/28 03:10:50;;;;;;;6.90;4.17;;;32.10;99.70;;;;;;1838835;76;21145;-68
2023/06/28 03:13:23;;;;;;;10.05;4.12;;;32.10;99.80;;;;;;1890600;74;21592;-68
2023/06/28 03:15:56;;;;;;;9.90;5.15;;;32.20;99.50;;;;;;1882670;73;21590;-70
2023/06/28 03:18:30;;;;;;;8.25;4.17;;;32.10;99.60;;;;;;1902004;74;21115;-69
2023/06/28 03:21:02;;;;;;;9.13;3.58;;;32.00;99.30;;;;;;1898184;74;21625;-70
2023/06/28 03:23:34;;;;;;;6.95;4.15;;;31.90;99.70;;;;;;1899932;74;21108;-69
2023/06/28 03:26:06;;;;;;;5.80;3.85;;;31.80;99.80;;;;;;1898775;73;21129;-69
2023/06/28 03:28:38;;;;;;;11.78;4.15;;;31.80;99.90;;;;;;1888511;75;21487;-71
2023/06/28 03:31:11;;;;;;;9.55;3.77;;;31.70;99.90;;;;;;1877229;74;21213;-69
2023/06/28 03:33:44;;;;;;;14.23;4.50;;;31.70;99.90;;;;;;1886927;74;21909;-69
2023/06/28 03:36:17;;;;;;;9.40;4.22;;;31.70;99.90;;;;;;1897568;75;21281;-69
2023/06/28 03:38:49;;;;;;;8.30;4.40;;;31.80;99.90;;;;;;1905198;74;21639;-71
2023/06/28 03:41:22;;;;;;;6.90;3.67;;;32.00;99.90;;;;;;1917274;73;21135;-68
2023/06/28 03:43:55;;;;;;;16.20;5.05;;;32.10;99.70;;;;;;1903164;75;21108;-68
2023/06/28 03:46:27;;;;;;;9.63;4.92;;;32.10;99.90;;;;;;1902503;74;21144;-69
2023/06/28 03:49:01;;;;;;;7.50;4.35;;;32.10;99.80;;;;;;1843253;76;21162;-69
2023/06/28 03:51:32;;;;;;;7.25;3.87;;;32.00;99.70;;;;;;1849734;76;21865;-71
2023/06/28 03:54:04;;;;;;;8.88;4.28;;;31.90;99.90;;;;;;1895746;74;21198;-70
2023/06/28 03:56:35;;;;;;;7.45;4.50;;;32.00;99.90;;;;;;1900086;74;21604;-70
2023/06/28 03:59:08;;;;;;;7.33;4.75;;;32.00;99.90;;;;;;1883422;74;21113;-71
2023/06/28 04:01:40;;;;;;;18.50;5.00;;;32.00;99.70;;;;;;1873299;74;21157;-70
2023/06/28 04:04:13;;;;;;;9.73;5.12;;;32.10;99.80;;;;;;1903266;73;21514;-70
2023/06/28 04:06:47;;;;;;;9.48;5.12;;;32.10;99.60;;;;;;1857619;74;21413;-69
2023/06/28 04:09:21;;;;;;;7.95;5.35;;;32.10;99.50;;;;;;1860908;76;21119;-70
2023/06/28 04:11:54;;;;;;;12.65;4.83;;;32.20;99.70;;;;;;1853318;76;21197;-71
2023/06/28 04:14:28;;;;;;;7.03;4.28;;;32.30;99.90;;;;;;1894850;74;21530;-71
2023/06/28 04:17:02;;;;;;;9.45;4.47;;;32.40;99.90;;;;;;1859037;76;21107;-71
2023/06/28 04:19:35;;;;;;;12.73;5.17;;;32.40;99.70;;;;;;1891569;74;21111;-67
2023/06/28 04:22:08;;;;;;;15.00;5.70;;;32.40;99.20;;;;;;1834036;76;21099;-71
2023/06/28 04:24:40;;;;;;;9.83;4.65;;;32.40;99.30;;;;;;1868000;74;21162;-68
2023/06/28 04:27:15;;;;;;;10.18;5.15;;;32.20;99.50;;;;;;1840387;76;21609;-70
2023/06/28 04:29:47;;;;;;;17.60;5.90;;;32.20;99.90;;;;;;1890433;75;21146;-68
2023/06/28 04:32:25;;;;;;;8.78;4.47;;;32.10;99.60;;;;;;1873333;74;21232;-70
2023/06/28 04:34:59;;;;;;;10.30;4.33;;;32.10;99.90;;;;;;1903052;73;21534;-69
2023/06/28 04:37:31;;;;;;;12.13;4.20;;;32.10;99.90;;;;;;1910648;73;21063;-69
2023/06/28 04:40:03;;;;;;;10.72;4.05;;;32.10;99.60;;;;;;1898201;73;21142;-71
2023/06/28 04:42:35;;;;;;;8.58;4.17;;;32.10;99.50;;;;;;1900069;73;21498;-69
2023/06/28 04:45:09;;;;;;;9.20;4.03;;;32.00;99.10;;;;;;1901120;75;21146;-70
2023/06/28 04:47:42;;;;;;;5.12;3.17;;;32.00;99.40;;;;;;1889728;74;21118;-69
2023/06/28 04:50:17;;;;;;;;;;;32.10;99.00;;;;;;1892378;74;21509;-69
2023/06/28 04:52:54;;;;;;;9.68;3.30;;;32.20;98.40;;;;;;1826928;77;20218;-69
2023/06/28 04:55:32;;;;;;;5.53;2.20;;;32.20;97.60;;;;;;1897738;74;21505;-69
2023/06/28 04:58:03;;;;;;;5.28;2.08;;;32.40;97.40;;;;;;1868712;74;21098;-68
2023/06/28 05:00:35;;;;;;;6.55;2.90;;;32.50;97.10;;;;;;1880335;74;21122;-69
2023/06/28 05:03:10;;;;;;;23.52;3.72;;;32.60;97.20;;;;;;1875188;74;21170;-67
2023/06/28 05:05:40;;;;;;;7.28;2.87;;;;;;;;;;1877611;75;21755;-68
2023/06/28 05:08:17;;;;;;;6.40;3.23;;;32.90;96.80;;;;;;1867745;75;21629;-68
2023/06/28 05:10:51;;;;;;;7.22;3.15;;;32.90;96.70;;;;;;1836006;76;21867;-69
2023/06/28 05:13:23;;;;;;;8.05;3.37;;;33.00;97.30;;;;;;1906680;74;21092;-67
2023/06/28 05:15:55;;;;;;;5.75;3.45;;;33.10;97.60;;;;;;1899523;74;21210;-70
2023/06/28 05:18:26;;;;;;;8.03;3.27;;;33.20;97.40;;;;;;1859515;75;21127;-70
2023/06/28 05:21:01;;;;;;;6.95;3.90;;;33.30;97.00;;;;;;1846946;75;21135;-69
2023/06/28 05:23:40;;;;;;;5.17;3.52;;;33.40;97.20;;;;;;1879157;74;21119;-68
2023/06/28 05:26:13;;;;;;;7.92;3.45;;;33.40;96.70;;;;;;1838328;76;21219;-68
2023/06/28 05:28:46;;;;;;;7.37;3.10;;;33.50;96.70;;;;;;1867703;74;21182;-68
2023/06/28 05:31:19;;;;;;;5.87;3.30;;;33.60;96.00;;;;;;1873794;76;21083;-68
2023/06/28 05:33:52;;;;;;;5.97;2.72;;;33.60;95.70;;;;;;1893360;74;21766;-68
2023/06/28 05:36:24;;;;;;;8.93;3.00;;;33.70;94.40;;;;;;1895953;73;21213;-68
2023/06/28 05:38:57;;;;;;;4.92;2.80;;;33.70;94.40;;;;;;1901162;74;21075;-69
2023/06/28 05:41:31;;;;;;;5.25;2.72;;;33.60;94.60;;;;;;1867093;76;21128;-69
2023/06/28 05:44:02;;;;;;;6.72;2.90;;;33.60;95.20;;;;;;1846433;76;21218;-69
2023/06/28 05:46:39;;;;;;;5.33;2.90;;;33.60;94.80;;;;;;1902404;75;21099;-69
2023/06/28 05:49:14;;;;;;;5.00;2.58;;;33.60;94.90;;;;;;1894500;75;21103;-70
2023/06/28 05:51:48;;;;;;;6.58;2.70;;;33.60;94.70;;;;;;1901101;73;21212;-68
2023/06/28 05:54:21;;;;;;;6.10;2.85;;;33.60;95.00;;;;;;1909254;73;21548;-69
2023/06/28 05:56:53;;;;;;;5.90;2.30;;;33.70;94.40;;;;;;1916169;73;21119;-69
2023/06/28 05:59:31;;;;;;;6.87;2.25;;;33.80;94.00;;;;;;1878018;75;21136;-70
2023/06/28 06:02:07;;;;;;;5.47;2.30;;;33.70;94.30;;;;;;1849856;76;21196;-68
2023/06/28 06:04:39;;;;;;;4.78;2.37;;;33.70;94.50;;;;;;1900543;75;21150;-69
2023/06/28 06:07:12;;;;;;;11.20;2.87;;;33.60;94.50;;;;;;1849485;76;21098;-70
2023/06/28 06:09:47;;;;;;;4.12;2.45;;;33.70;94.40;;;;;;1895967;74;21079;-70
2023/06/28 06:12:20;;;;;;;15.35;3.62;;;33.80;93.60;;;;;;1901092;75;21080;-69
2023/06/28 06:14:56;;;;;;;6.03;2.70;;;33.90;94.10;;;;;;1879160;75;21067;-69
2023/06/28 06:17:26;;;;;;;12.53;3.08;;;34.00;93.90;;;;;;1880015;75;21901;-69
2023/06/28 06:20:00;;;;;;;9.10;2.95;;;34.00;93.60;;;;;;1826560;76;21101;-69
2023/06/28 06:22:34;;;;;;;4.80;2.58;;;34.00;93.60;;;;;;1901722;74;21067;-70
2023/06/28 06:25:05;;;;;;;8.33;2.77;;;34.10;93.10;;;;;;1929066;74;21064;-70
2023/06/28 06:27:40;;;;;;;6.25;2.40;;;34.10;93.00;;;;;;1905217;73;21488;-71
2023/06/28 06:30:14;;;;;;;7.75;2.95;;;34.10;92.60;;;;;;1897656;73;21117;-71
2023/06/28 06:32:49;;;;;;;11.73;3.77;;;34.10;93.00;;;;;;1903164;74;21046;-68
2023/06/28 06:35:22;;;;;;;7.35;2.80;;;34.10;93.30;;;;;;1896015;74;21049;-71
2023/06/28 06:37:55;;;;;;;9.75;2.87;;;34.10;93.00;;;;;;1893254;74;21228;-70
2023/06/28 06:40:31;;;;;;;50.00;8.13;;;34.20;93.20;;;;;;1884796;75;21147;-70
2023/06/28 06:43:06;;;;;;;14.15;3.60;;;34.30;93.30;;;;;;1888607;73;21236;-71
2023/06/28 06:45:40;;;;;;;11.57;3.40;;;34.30;92.30;;;;;;1856205;75;21542;-70
2023/06/28 06:48:13;;;;;;;7.03;2.08;;;34.30;92.90;;;;;;1891832;73;21109;-70
2023/06/28 06:50:48;;;;;;;7.50;2.63;;;34.20;93.40;;;;;;1888763;75;21652;-71
2023/06/28 06:53:22;;;;;;;5.08;2.35;;;34.00;93.30;;;;;;1857838;75;21146;-70
2023/06/28 06:55:55;;;;;;;8.20;2.87;;;34.00;93.00;;;;;;1890744;73;21095;-70
2023/06/28 06:58:27;;;;;;;5.00;2.65;;;34.10;93.90;;;;;;1887317;73;21569;-70
2023/06/28 07:00:58;;;;;;;7.17;2.77;;;34.20;93.40;;;;;;1905237;74;21067;-69
2023/06/28 07:03:31;;;;;;;10.15;3.37;;;34.20;93.50;;;;;;1894704;73;21318;-70
2023/06/28 07:06:04;;;;;;;4.70;2.98;;;34.20;93.90;;;;;;1904356;74;21217;-69
2023/06/28 07:08:38;;;;;;;5.42;2.67;;;34.10;94.30;;;;;;1898832;73;21064;-70
2023/06/28 07:11:11;;;;;;;10.55;2.58;;;34.00;94.70;;;;;;1898750;75;21376;-72
2023/06/28 07:13:46;;;;;;;7.72;3.20;;;33.90;95.00;;;;;;1890070;74;21112;-69
2023/06/28 07:16:18;;;;;;;6.40;2.90;;;33.80;95.20;;;;;;1878574;74;21095;-72
2023/06/28 07:18:51;;;;;;;4.85;2.50;;;33.80;95.40;;;;;;1825943;76;21115;-70
2023/06/28 07:21:26;;;;;;;5.20;3.02;;;33.60;95.60;;;;;;1903732;73;21111;-72
2023/06/28 07:23:59;;;;;;;7.17;2.58;;;33.50;95.50;;;;;;1900868;74;21117;-70
2023/06/28 07:26:32;;;;;;;7.95;2.50;;;33.40;95.70;;;;;;1887668;74;21101;-71
2023/06/28 07:29:05;;;;;;;7.37;2.60;;;33.40;95.70;;;;;;1846186;76;21160;-71
2023/06/28 07:31:37;;;;;;;4.92;2.60;;;33.30;95.80;;;;;;1885263;74;21055;-71
2023/06/28 07:34:10;;;;;;;4.85;2.62;;;33.40;96.30;;;;;;1882990;74;21165;-70
2023/06/28 07:36:43;;;;;;;6.33;3.10;;;33.50;96.20;;;;;;1881258;74;21502;-70
2023/06/28 07:39:18;;;;;;;7.93;2.57;;;33.50;96.00;;;;;;1865180;74;21243;-72
2023/06/28 07:41:51;;;;;;;7.60;3.05;;;33.50;96.00;;;;;;1852887;74;21107;-69
2023/06/28 07:44:23;;;;;;;7.58;2.72;;;33.40;96.10;;;;;;1855655;76;21582;-71
2023/06/28 07:46:57;;;;;;;7.10;2.70;;;33.40;95.90;;;;;;1862963;76;21137;-69
2023/06/28 07:49:31;;;;;;;6.58;2.85;;;33.40;95.90;;;;;;1876320;76;21056;-70
2023/06/28 07:52:05;;;;;;;8.00;3.85;;;33.40;96.10;;;;;;1890232;75;21079;-71
2023/06/28 07:54:40;;;;;;;5.90;2.50;;;33.50;96.00;;;;;;1896116;75;21143;-70
2023/06/28 07:57:11;;;;;;;5.20;2.20;;;33.50;95.90;;;;;;1894125;73;21815;-70
2023/06/28 07:59:46;;;;;;;7.55;2.77;;;33.70;96.00;;;;;;1902956;74;21142;-71
2023/06/28 08:02:18;;;;;;;6.53;3.05;;;33.70;95.60;;;;;;1894722;73;21073;-69
2023/06/28 08:04:53;;;;;;;11.05;3.08;;;33.80;95.60;;;;;;1877266;74;21151;-71
2023/06/28 08:07:29;;;;;;;6.33;2.67;;;33.80;95.60;;;;;;1854727;76;21097;-70
2023/06/28 08:10:02;;;;;;;9.23;3.45;;;33.80;95.90;;;;;;1859969;75;21201;-72
2023/06/28 08:12:36;;;;;;;5.83;3.12;;;33.80;96.20;;;;;;1875872;74;21127;-72
2023/06/28 08:15:10;;;;;;;8.05;3.20;;;33.70;96.90;;;;;;1858566;76;21162;-71
2023/06/28 08:17:44;;;;;;;8.55;3.62;;;33.60;97.40;;;;;;1869369;76;21120;-70
2023/06/28 08:20:20;;;;;;;8.75;3.45;;;33.50;98.40;;;;;;1887029;74;21135;-70
2023/06/28 08:22:54;;;;;;;8.13;4.03;;;33.40;98.90;;;;;;1853091;75;21116;-70
2023/06/28 08:25:27;;;;;;;8.90;4.70;;;33.20;99.10;;;;;;1888166;75;21147;-71
2023/06/28 08:28:00;;;;;;;6.72;4.25;;;32.90;99.80;;;;;;1888565;75;21095;-70
2023/06/28 08:30:34;;;;;;;8.28;4.37;;;32.70;99.80;;;;;;1845626;75;21192;-70
2023/06/28 08:33:08;;;;;;;6.83;4.75;;;32.50;99.90;;;;;;1834566;77;21153;-68
2023/06/28 08:35:41;;;;;;;7.05;3.90;;;32.30;99.90;;;;;;1886920;75;21071;-71
2023/06/28 08:38:15;;;;;;;5.92;3.52;;;32.20;99.90;;;;;;1866583;76;21233;-70
2023/06/28 08:40:48;;;;;;;5.85;3.60;;;32.10;99.90;;;;;;1825537;76;21137;-70
2023/06/28 08:43:22;;;;;;;7.70;3.98;;;32.00;99.90;;;;;;1894702;74;21151;-70
2023/06/28 08:45:56;;;;;;;9.13;4.50;;;31.90;99.90;;;;;;1874961;76;21182;-70
2023/06/28 08:48:30;;;;;;;7.28;4.10;;;31.90;99.90;;;;;;1846466;75;21563;-69
2023/06/28 08:51:03;;;;;;;5.92;4.12;;;31.90;99.90;;;;;;1880774;74;21092;-71
2023/06/28 08:53:37;;;;;;;8.25;4.00;;;31.90;99.90;;;;;;1842806;76;21193;-71
2023/06/28 08:56:11;;;;;;;7.60;4.20;;;31.80;99.90;;;;;;1854951;76;21196;-69
2023/06/28 08:58:51;;;;;;;8.75;4.83;;;31.90;99.90;;;;;;1867362;76;21114;-70
2023/06/28 09:01:28;;;;;;;6.87;3.83;;;31.90;99.90;;;;;;1849002;76;21102;-70
2023/06/28 09:04:01;;;;;;;8.10;3.70;;;31.90;99.90;;;;;;1846202;76;21337;-71
2023/06/28 09:06:42;;;;;;;6.60;3.55;;;31.90;99.90;;;;;;1895452;74;21090;-70
2023/06/28 09:09:15;;;;;;;6.87;3.62;;;31.90;99.90;;;;;;1832186;77;21238;-70
2023/06/28 09:11:49;;;;;;;8.80;4.45;;;31.90;99.90;;;;;;1880419;74;21146;-69
2023/06/28 09:14:22;;;;;;;8.18;4.30;;;31.90;99.90;;;;;;1855573;75;21118;-69
2023/06/28 09:16:53;;;;;;;6.40;3.50;;;31.90;99.90;;;;;;1857119;75;21152;-68
2023/06/28 09:19:26;;;;;;;8.45;3.75;;;31.90;99.90;;;;;;1903704;75;21458;-68
2023/06/28 09:22:07;;;;;;;6.37;3.62;;;31.90;99.90;;;;;;1878981;75;21052;-69
2023/06/28 09:24:43;;;;;;;3.58;2.83;;;32.00;99.90;;;;;;1892829;74;21068;-69
2023/06/28 09:27:17;;;;;;;6.17;3.40;;;32.00;99.60;;;;;;1887853;74;21525;-69
2023/06/28 09:29:59;;;;;;;10.35;4.10;;;32.00;99.80;;;;;;1852679;76;21080;-69
2023/06/28 09:32:41;;;;;;;9.08;3.22;;;32.00;99.90;;;;;;1857872;76;21103;-70
2023/06/28 09:35:14;;;;;;;6.40;3.33;;;32.00;99.80;;;;;;1893926;74;21148;-70
2023/06/28 09:37:52;;;;;;;9.70;4.47;;;32.00;99.70;;;;;;1910589;73;21606;-71
2023/06/28 09:40:31;;;;;;;8.98;3.60;;;32.10;99.90;;;;;;1878039;75;21068;-69
2023/06/28 09:43:04;;;;;;;6.40;3.55;;;32.10;99.90;;;;;;1873222;75;21072;-70
2023/06/28 09:45:37;;;;;;;8.48;4.03;;;32.10;99.90;;;;;;1842631;75;21166;-70
2023/06/28 09:48:28;;;;;;;7.55;3.60;;;32.10;99.90;;;;;;1850282;76;21083;-69
2023/06/28 09:51:03;;;;;;;6.05;3.98;;;32.20;99.90;;;;;;1890289;74;21122;-69
2023/06/28 09:53:53;;;;;;;5.42;3.75;;;32.20;99.90;;;;;;1886907;75;21571;-70
2023/06/28 09:56:38;;;;;;;5.90;3.80;;;32.20;99.90;;;;;;1829392;75;21509;-69
2023/06/28 09:59:21;;;;;;;9.30;4.53;;;32.20;99.80;;;;;;1858471;74;21181;-69
2023/06/28 10:02:01;;;;;;;14.30;6.65;;;32.10;99.90;;;;;;1857283;76;21227;-70
2023/06/28 10:04:40;;;;;;;15.25;6.97;;;32.10;99.90;;;;;;1871976;74;21063;-70
2023/06/28 10:07:15;;;;;;;10.50;5.10;;;32.10;99.90;;;;;;1894172;74;21562;-70
2023/06/28 10:09:49;;;;;;;10.95;5.87;;;32.10;99.90;;;;;;1855978;76;21527;-70
2023/06/28 10:12:24;;;;;;;37.38;8.30;;;32.00;99.70;;;;;;1857196;76;21144;-70
2023/06/28 10:15:02;;;;;;;13.13;5.60;;;32.00;99.70;;;;;;1913444;74;21538;-70
2023/06/28 10:17:36;;;;;;;10.98;5.08;;;31.90;99.50;;;;;;1890949;74;21099;-69
2023/06/28 10:20:08;;;;;;;10.28;5.10;;;31.90;99.50;;;;;;1898818;74;21076;-71
2023/06/28 10:22:41;;;;;;;10.00;4.75;;;31.80;99.30;;;;;;1900642;74;21244;-70
2023/06/28 10:25:18;;;;;;;7.45;4.65;;;31.80;99.50;;;;;;1913267;74;21379;-70
2023/06/28 10:27:52;;;;;;;8.65;4.50;;;31.70;99.60;;;;;;1907847;73;21060;-70
2023/06/28 10:30:23;;;;;;;8.00;4.37;;;31.70;99.60;;;;;;1908725;73;21750;-72
2023/06/28 10:32:57;;;;;;;10.90;4.40;;;31.70;99.60;;;;;;1901156;74;21076;-72
2023/06/28 10:35:29;;;;;;;6.05;3.75;;;31.60;98.80;;;;;;1893575;74;21074;-69
2023/06/28 10:38:02;;;;;;;8.70;4.00;;;31.60;99.10;;;;;;1897438;75;21099;-71
2023/06/28 10:40:33;;;;;;;12.68;5.42;;;31.60;99.30;;;;;;1919479;73;21091;-73
2023/06/28 10:43:05;;;;;;;18.30;5.78;;;31.50;99.40;;;;;;1928545;74;21100;-71
2023/06/28 10:45:38;;;;;;;13.05;4.87;;;31.50;99.00;;;;;;1900275;73;21068;-72
2023/06/28 10:48:12;;;;;;;9.50;3.80;;;31.50;98.80;;;;;;1892419;74;21170;-70
2023/06/28 10:50:44;;;;;;;7.35;4.03;;;31.40;98.50;;;;;;1895786;74;21521;-72
2023/06/28 10:53:26;;;;;;;9.50;3.60;;;31.40;98.20;;;;;;1857722;76;21323;-72
2023/06/28 10:56:14;;;;;;;6.65;3.58;;;31.40;98.00;;;;;;1839906;76;21135;-72
2023/06/28 10:58:52;;;;;;;7.30;3.40;;;31.40;98.00;;;;;;1825193;76;21087;-72
2023/06/28 11:01:37;;;;;;;7.28;3.25;;;31.40;98.30;;;;;;1899108;74;21139;-70
2023/06/28 11:04:13;;;;;;;7.92;3.20;;;31.30;98.50;;;;;;1880070;74;21102;-71
2023/06/28 11:06:47;;;;;;;6.20;3.17;;;31.20;98.60;;;;;;1841343;75;21091;-70
2023/06/28 11:09:21;;;;;;;8.95;3.67;;;31.30;99.00;;;;;;1838623;76;21180;-72
2023/06/28 11:11:59;;;;;;;7.80;3.77;;;31.20;99.10;;;;;;1848545;76;21559;-70
2023/06/28 11:14:34;;;;;;;8.33;3.42;;;31.20;99.10;;;;;;1858551;74;21119;-71
2023/06/28 11:17:15;;;;;;;9.38;3.83;;;31.10;99.40;;;;;;1887622;74;21145;-71
2023/06/28 11:19:50;;;;;;;5.20;3.77;;;31.10;99.60;;;;;;1881191;74;21154;-71
2023/06/28 11:22:24;;;;;;;8.35;4.20;;;31.00;99.90;;;;;;1859222;76;21114;-70
2023/06/28 11:25:03;;;;;;;6.40;3.92;;;31.00;99.90;;;;;;1845751;76;21161;-71
2023/06/28 11:27:38;;;;;;;8.20;4.10;;;30.90;99.90;;;;;;1853623;77;21045;-72
2023/06/28 11:30:10;;;;;;;9.70;4.95;;;30.90;99.90;;;;;;1852044;76;21135;-71
2023/06/28 11:32:43;;;;;;;8.58;5.35;;;30.80;99.90;;;;;;1854743;76;21244;-71
2023/06/28 11:35:16;;;;;;;8.15;4.95;;;30.70;99.90;;;;;;1893218;74;21621;-70
2023/06/28 11:37:49;;;;;;;10.15;4.83;;;30.70;99.90;;;;;;1903779;74;21103;-72
2023/06/28 11:40:22;;;;;;;10.72;5.17;;;30.70;99.90;;;;;;1903652;73;21166;-71
2023/06/28 11:42:53;;;;;;;13.10;5.15;;;30.60;99.90;;;;;;1874707;74;21507;-71
2023/06/28 11:45:25;;;;;;;8.78;5.30;;;30.60;99.90;;;;;;1857752;75;21163;-72
2023/06/28 11:47:58;;;;;;;10.75;4.55;;;30.50;99.90;;;;;;1903456;74;21073;-71
2023/06/28 11:50:29;;;;;;;11.18;4.80;;;30.50;99.90;;;;;;1894693;74;21088;-71
2023/06/28 11:53:00;;;;;;;8.83;4.70;;;30.40;99.90;;;;;;1906951;74;21139;-70
2023/06/28 11:55:36;;;;;;;;;;;30.30;99.90;;;;;;1884183;74;21111;-71
2023/06/28 11:58:11;;;;;;;7.72;4.47;;;30.30;99.90;;;;;;1889134;74;20186;-70
2023/06/28 12:00:45;;;;;;;9.65;4.35;;;30.30;99.90;;;;;;1874602;74;21087;-71
2023/06/28 12:03:20;;;;;;;6.53;4.17;;;30.30;99.90;;;;;;1852299;76;21522;-70
2023/06/28 12:05:55;;;;;;;9.85;5.25;;;30.20;99.90;;;;;;1881501;75;21111;-73
2023/06/28 12:08:34;;;;;;;10.88;3.40;;;30.10;99.90;;;;;;1908870;74;21505;-71
2023/06/28 12:11:15;;;;;;;5.10;2.92;;;30.00;99.90;;;;;;1909113;73;21552;-70
2023/06/28 12:13:48;;;;;;;11.10;2.75;;;30.00;99.90;;;;;;1907980;73;21068;-70
2023/06/28 12:16:21;;;;;;;7.08;2.50;;;29.90;99.90;;;;;;1891163;73;21148;-70
2023/06/28 12:18:59;;;;;;;7.45;2.70;;;29.90;99.90;;;;;;1906615;73;21506;-81
2023/06/28 12:21:44;;;;;;;5.20;2.02;;;29.90;99.90;;;;;;1918629;74;21506;-80
2023/06/28 12:24:24;;;;;;;5.45;1.92;;;29.90;99.90;;;;;;1904068;73;21126;-85
2023/06/28 12:27:00;;;;;;;5.05;1.90;;;29.90;99.90;;;;;;1890424;74;21569;-83
2023/06/28 12:29:42;;;;;;;4.62;1.70;;;29.80;99.90;;;;;;1906711;74;21143;-81
2023/06/28 12:32:16;;;;;;;5.00;1.82;;;29.80;99.90;;;;;;1907456;74;21569;-83
2023/06/28 12:34:53;;;;;;;7.72;2.55;;;29.80;99.90;;;;;;1913634;73;21692;-83
2023/06/28 12:37:42;;;;;;;9.70;2.50;;;29.80;99.90;;;;;;1895427;74;21146;-81
2023/06/28 12:40:13;;;;;;;10.08;2.90;;;29.70;99.90;;;;;;1911328;73;21122;-81
2023/06/28 12:42:49;;;;;;;8.03;3.23;;;29.70;99.90;;;;;;1905295;73;21102;-80
2023/06/28 12:45:25;;;;;;;7.30;3.45;;;29.60;99.90;;;;;;1890751;73;21157;-84
2023/06/28 12:48:00;;;;;;;8.83;3.15;;;29.60;99.90;;;;;;1906079;74;21209;-83
2023/06/28 12:50:37;;;;;;;7.65;3.00;;;29.60;99.90;;;;;;1899649;73;21522;-81
2023/06/28 12:53:11;;;;;;;5.85;3.05;;;29.50;99.90;;;;;;1906163;75;21292;-81
2023/06/28 12:55:45;;;;;;;6.50;3.08;;;29.50;99.90;;;;;;1887055;74;21585;-82
2023/06/28 12:58:16;;;;;;;6.78;3.17;;;29.50;99.90;;;;;;1910247;73;21070;-81
2023/06/28 13:00:53;;;;;;;4.75;2.45;;;29.40;99.90;;;;;;1909903;73;21213;-81
2023/06/28 13:03:26;;;;;;;4.78;2.45;;;29.30;99.90;;;;;;1897170;74;21133;-82
2023/06/28 13:06:18;;;;;;;3.47;1.85;;;29.30;99.90;;;;;;1903043;74;21139;-83
2023/06/28 13:08:44;;;;;;;6.30;2.10;;;29.10;99.90;;;;;;1897283;74;21126;-84
2023/06/28 13:11:17;;;;;;;7.03;2.02;;;29.10;99.90;;;;;;1899573;75;21087;-82
2023/06/28 13:13:52;;;;;;;5.20;2.30;;;29.00;99.90;;;;;;1903014;74;21107;-81
2023/06/28 13:16:25;;;;;;;9.38;2.70;;;28.90;99.90;;;;;;1901553;74;21216;-78
2023/06/28 13:18:58;;;;;;;4.12;2.20;;;28.90;99.90;;;;;;1905811;74;21053;-81
2023/06/28 13:21:29;;;;;;;5.15;2.20;;;28.80;99.90;;;;;;1904756;73;21130;-83